Time;durP1;ratioP1;P1;durP2;ratioP2;P2;SDS_P1;SDS_P2;PMS_P1;PMS_P2;Temp;Humidity;BMP_temperature;BMP_pressure;BME280_temperature;BME280_humidity;BME280_pressure;Samples;Min_cycle;Max_cycle;Signal;HPM_P1;HPM_P2
2023/06/12 00:00:45;;;;;;;3.15;2.85;;;;;29.30;101481.00;;;;5080789;28;20206;-79
2023/06/12 00:03:15;;;;;;;4.88;3.00;;;;;29.20;101472.00;;;;5067412;28;20712;-79
2023/06/12 00:05:45;;;;;;;3.70;2.90;;;;;29.20;101479.00;;;;5068372;28;20553;-79
2023/06/12 00:08:13;;;;;;;3.47;3.00;;;;;29.20;101477.00;;;;5068731;28;20203;-79
2023/06/12 00:10:41;;;;;;;3.13;2.90;;;;;29.10;101478.00;;;;5087559;28;20202;-79
2023/06/12 00:13:09;;;;;;;4.18;3.25;;;;;29.10;101480.00;;;;5088148;28;20201;-79
2023/06/12 00:15:36;;;;;;;3.60;3.17;;;;;29.10;101482.00;;;;5087935;28;20247;-79
2023/06/12 00:18:04;;;;;;;3.97;3.58;;;;;29.00;101475.00;;;;5077345;28;20214;-79
2023/06/12 00:20:33;;;;;;;3.42;3.13;;;;;29.00;101471.00;;;;5067832;28;20214;-80
2023/06/12 00:23:01;;;;;;;5.43;3.67;;;;;28.90;101476.00;;;;5068187;28;20222;-80
2023/06/12 00:25:28;;;;;;;3.50;3.20;;;;;28.90;101472.00;;;;5068055;28;20199;-79
2023/06/12 00:27:56;;;;;;;3.58;2.92;;;;;28.90;101478.00;;;;5067890;28;20191;-79
2023/06/12 00:30:23;;;;;;;4.38;3.25;;;;;28.80;101472.00;;;;5068339;28;20664;-80
2023/06/12 00:32:50;;;;;;;4.82;3.65;;;;;28.80;101472.00;;;;5071085;28;20198;-79
2023/06/12 00:35:19;;;;;;;3.65;3.20;;;;;28.70;101462.00;;;;5072419;28;20206;-79
2023/06/12 00:37:48;;;;;;;6.63;3.30;;;;;28.70;101468.00;;;;5075230;28;20199;-79
2023/06/12 00:40:16;;;;;;;3.13;2.75;;;;;28.70;101466.00;;;;5091875;28;20263;-79
2023/06/12 00:42:46;;;;;;;4.28;3.42;;;;;28.60;101467.00;;;;5091844;28;20214;-79
2023/06/12 00:45:14;;;;;;;3.35;3.05;;;;;28.60;101466.00;;;;5091006;28;20244;-79
2023/06/12 00:47:43;;;;;;;3.40;3.10;;;;;28.60;101467.00;;;;5091753;28;20207;-79
2023/06/12 00:50:12;;;;;;;4.45;2.70;;;;;28.60;101463.00;;;;5091758;28;20210;-79
2023/06/12 00:52:43;;;;;;;3.85;2.97;;;;;28.50;101468.00;;;;5090166;28;20206;-79
2023/06/12 00:55:13;;;;;;;4.07;3.28;;;;;28.50;101467.00;;;;5091533;28;20726;-79
2023/06/12 00:57:41;;;;;;;3.60;3.15;;;;;28.50;101468.00;;;;5091117;28;20318;-79
2023/06/12 01:00:11;;;;;;;3.22;2.97;;;;;28.40;101469.00;;;;5091413;28;20289;-79
2023/06/12 01:02:42;;;;;;;3.75;2.67;;;;;28.40;101463.00;;;;5091287;28;20687;-78
2023/06/12 01:05:12;;;;;;;4.45;3.35;;;;;28.40;101465.00;;;;5091681;28;20202;-79
2023/06/12 01:07:45;;;;;;;4.35;3.55;;;;;28.30;101465.00;;;;5090715;28;20202;-79
2023/06/12 01:10:18;;;;;;;3.47;3.15;;;;;28.30;101460.00;;;;5090707;28;20200;-78
2023/06/12 01:12:47;;;;;;;3.17;2.88;;;;;28.30;101461.00;;;;5090637;28;20210;-78
2023/06/12 01:15:15;;;;;;;3.00;2.75;;;;;28.30;101466.00;;;;5090742;28;20671;-79
2023/06/12 01:17:42;;;;;;;3.90;3.25;;;;;28.30;101465.00;;;;5090839;28;20248;-79
2023/06/12 01:20:12;;;;;;;4.53;2.95;;;;;28.20;101468.00;;;;5091645;28;20205;-79
2023/06/12 01:22:43;;;;;;;4.40;2.85;;;;;28.20;101465.00;;;;5090520;28;20248;-78
2023/06/12 01:25:32;;;;;;;3.55;2.92;;;;;28.10;101464.00;;;;5090216;28;20211;-78
2023/06/12 01:28:13;;;;;;;5.45;3.25;;;;;28.20;101467.00;;;;5091044;28;20210;-79
2023/06/12 01:30:54;;;;;;;3.75;3.30;;;;;28.10;101470.00;;;;5090815;28;20523;-79
2023/06/12 01:33:33;;;;;;;4.32;3.10;;;;;28.10;101475.00;;;;5090415;28;20229;-78
2023/06/12 01:36:02;;;;;;;4.47;3.13;;;;;28.10;101473.00;;;;5090712;28;20267;-78
2023/06/12 01:38:31;;;;;;;4.18;3.25;;;;;28.10;101468.00;;;;5090502;28;20208;-78
2023/06/12 01:41:00;;;;;;;3.72;3.38;;;;;28.10;101475.00;;;;5090692;28;20194;-79
2023/06/12 01:43:28;;;;;;;3.17;2.88;;;;;28.10;101473.00;;;;5088616;28;20237;-79
2023/06/12 01:45:55;;;;;;;3.60;3.00;;;;;28.00;101479.00;;;;5090826;28;20206;-79
2023/06/12 01:48:24;;;;;;;5.35;3.33;;;;;28.00;101470.00;;;;5090170;28;20688;-79
2023/06/12 01:50:51;;;;;;;6.07;2.97;;;;;28.00;101473.00;;;;5089567;28;20251;-78
2023/06/12 01:53:18;;;;;;;4.95;3.28;;;;;28.00;101472.00;;;;5089665;28;20198;-79
2023/06/12 01:55:49;;;;;;;3.40;2.88;;;;;27.90;101475.00;;;;5090967;28;20209;-78
2023/06/12 01:58:17;;;;;;;3.72;2.83;;;;;27.90;101477.00;;;;5090373;28;20197;-78
2023/06/12 02:00:44;;;;;;;3.58;2.92;;;;;27.90;101478.00;;;;5073650;28;20206;-79
2023/06/12 02:03:11;;;;;;;4.15;2.85;;;;;27.80;101474.00;;;;5070132;28;20318;-79
2023/06/12 02:05:40;;;;;;;3.75;2.80;;;;;27.80;101482.00;;;;5070151;28;20221;-79
2023/06/12 02:08:07;;;;;;;4.05;2.95;;;;;27.80;101479.00;;;;5070121;28;20199;-78
2023/06/12 02:10:34;;;;;;;3.35;3.05;;;;;27.80;101484.00;;;;5089451;28;20564;-79
2023/06/12 02:13:02;;;;;;;5.80;2.95;;;;;27.70;101483.00;;;;5090184;28;20567;-79
2023/06/12 02:15:29;;;;;;;3.53;2.95;;;;;27.70;101487.00;;;;5089739;28;20690;-79
2023/06/12 02:17:56;;;;;;;4.32;3.10;;;;;27.60;101481.00;;;;5088726;28;20668;-79
2023/06/12 02:20:23;;;;;;;4.47;3.08;;;;;27.60;101469.00;;;;5089752;28;20190;-78
2023/06/12 02:22:52;;;;;;;3.35;3.05;;;;;27.50;101469.00;;;;5089615;28;20218;-79
2023/06/12 02:25:20;;;;;;;3.28;2.72;;;;;27.50;101475.00;;;;5089445;28;20672;-79
2023/06/12 02:27:47;;;;;;;4.07;3.67;;;;;27.50;101474.00;;;;5089856;28;20293;-79
2023/06/12 02:30:14;;;;;;;3.28;2.83;;;;;27.40;101474.00;;;;5090074;28;20205;-79
2023/06/12 02:32:41;;;;;;;5.43;3.40;;;;;27.40;101470.00;;;;5089330;28;20230;-78
2023/06/12 02:35:09;;;;;;;4.20;3.67;;;;;27.30;101475.00;;;;5069145;28;20207;-78
2023/06/12 02:37:38;;;;;;;4.38;3.47;;;;;27.30;101474.00;;;;5069737;28;20286;-78
2023/06/12 02:40:08;;;;;;;2.92;2.63;;;;;27.20;101472.00;;;;5076793;28;20202;-79
2023/06/12 02:42:35;;;;;;;3.85;3.28;;;;;27.20;101477.00;;;;5089439;28;20194;-78
2023/06/12 02:45:02;;;;;;;3.72;3.38;;;;;27.10;101477.00;;;;5089676;28;20205;-78
2023/06/12 02:47:30;;;;;;;3.60;3.08;;;;;27.10;101471.00;;;;5089236;28;20366;-79
2023/06/12 02:49:57;;;;;;;4.05;3.60;;;;;27.00;101473.00;;;;5088736;28;20198;-79
2023/06/12 02:52:24;;;;;;;4.20;3.80;;;;;27.00;101470.00;;;;5088846;28;20194;-79
2023/06/12 02:54:51;;;;;;;5.43;3.38;;;;;27.00;101475.00;;;;5089256;28;20568;-79
2023/06/12 02:57:20;;;;;;;3.75;3.35;;;;;26.90;101468.00;;;;5088585;28;20894;-79
2023/06/12 02:59:47;;;;;;;2.95;2.63;;;;;26.90;101472.00;;;;5089564;28;20588;-79
2023/06/12 03:02:14;;;;;;;4.05;3.35;;;;;26.90;101471.00;;;;5088327;28;20441;-79
2023/06/12 03:04:42;;;;;;;4.90;3.42;;;;;26.80;101471.00;;;;5088424;28;20234;-79
2023/06/12 03:07:12;;;;;;;5.55;3.33;;;;;26.80;101463.00;;;;5086437;28;20224;-79
2023/06/12 03:09:42;;;;;;;3.53;3.00;;;;;26.70;101466.00;;;;5068655;28;20199;-79
2023/06/12 03:12:09;;;;;;;3.03;2.65;;;;;26.70;101473.00;;;;5082279;28;20194;-79
2023/06/12 03:14:38;;;;;;;3.35;3.05;;;;;26.60;101471.00;;;;5088270;28;20289;-79
2023/06/12 03:17:06;;;;;;;3.83;2.97;;;;;26.60;101474.00;;;;5088688;28;20210;-79
2023/06/12 03:19:33;;;;;;;3.90;3.13;;;;;26.60;101465.00;;;;5088737;28;20202;-79
2023/06/12 03:22:01;;;;;;;6.93;3.55;;;;;26.60;101473.00;;;;5088270;28;20198;-79
2023/06/12 03:24:29;;;;;;;3.50;3.20;;;;;26.50;101469.00;;;;5082634;28;20226;-79
2023/06/12 03:26:58;;;;;;;3.45;3.03;;;;;26.50;101467.00;;;;5068573;28;20199;-79
2023/06/12 03:29:26;;;;;;;4.07;3.33;;;;;26.50;101476.00;;;;5068146;28;20207;-79
2023/06/12 03:31:55;;;;;;;3.22;2.92;;;;;26.40;101475.00;;;;5068682;28;20219;-78
2023/06/12 03:34:22;;;;;;;4.30;3.60;;;;;26.40;101475.00;;;;5068289;28;20584;-79
2023/06/12 03:36:49;;;;;;;4.47;3.22;;;;;26.40;101473.00;;;;5068298;28;20572;-79
2023/06/12 03:39:16;;;;;;;3.80;3.40;;;;;26.40;101482.00;;;;5069275;28;20573;-79
2023/06/12 03:41:53;;;;;;;4.07;3.67;;;;;26.30;101476.00;;;;5079736;28;20202;-80
2023/06/12 03:44:20;;;;;;;3.72;3.42;;;;;26.30;101477.00;;;;5067149;28;20226;-79
2023/06/12 03:46:47;;;;;;;4.45;3.38;;;;;26.30;101478.00;;;;5068245;28;20199;-79
2023/06/12 03:49:16;;;;;;;5.68;3.78;;;;;26.30;101485.00;;;;5067377;28;20198;-79
2023/06/12 03:51:43;;;;;;;3.92;3.38;;;;;26.30;101485.00;;;;5067322;28;20218;-79
2023/06/12 03:54:12;;;;;;;4.25;3.38;;;;;26.30;101486.00;;;;5067604;28;20739;-79
2023/06/12 03:56:41;;;;;;;5.10;3.60;;;;;26.30;101491.00;;;;5074917;28;20671;-79
2023/06/12 03:59:08;;;;;;;3.95;3.35;;;;;26.20;101487.00;;;;5076712;28;20537;-79
2023/06/12 04:01:36;;;;;;;8.20;3.47;;;;;26.20;101485.00;;;;5066976;28;20203;-78
2023/06/12 04:04:03;;;;;;;5.38;3.22;;;;;26.20;101489.00;;;;5068059;28;20227;-79
2023/06/12 04:06:32;;;;;;;3.25;2.72;;;;;26.20;101482.00;;;;5071863;28;20190;-80
2023/06/12 04:09:01;;;;;;;5.50;3.50;;;;;26.20;101500.00;;;;5071397;28;20239;-79
2023/06/12 04:11:29;;;;;;;3.83;3.42;;;;;26.20;101495.00;;;;5080630;28;20206;-79
2023/06/12 04:13:56;;;;;;;6.85;3.08;;;;;26.20;101487.00;;;;5091475;28;20194;-79
2023/06/12 04:16:24;;;;;;;4.45;3.25;;;;;26.20;101487.00;;;;5090411;28;20247;-79
2023/06/12 04:18:51;;;;;;;4.68;3.03;;;;;26.30;101497.00;;;;5091594;28;20194;-79
2023/06/12 04:21:20;;;;;;;4.47;3.15;;;;;26.30;101493.00;;;;5091760;28;20675;-79
2023/06/12 04:23:49;;;;;;;4.80;2.72;;;;;26.30;101497.00;;;;5091751;28;20229;-79
2023/06/12 04:26:17;;;;;;;6.15;3.65;;;;;26.30;101501.00;;;;5091101;28;20204;-79
2023/06/12 04:28:46;;;;;;;3.67;2.90;;;;;26.30;101498.00;;;;5091995;28;20206;-79
2023/06/12 04:31:15;;;;;;;6.78;3.20;;;;;26.40;101500.00;;;;5091907;28;20226;-79
2023/06/12 04:33:42;;;;;;;3.60;3.28;;;;;26.40;101497.00;;;;5091810;28;20527;-79
2023/06/12 04:36:17;;;;;;;3.30;2.92;;;;;26.40;101499.00;;;;5091566;28;20672;-78
2023/06/12 04:38:45;;;;;;;4.88;3.30;;;;;26.40;101493.00;;;;5091693;28;20201;-78
2023/06/12 04:41:13;;;;;;;3.40;2.58;;;;;26.40;101495.00;;;;5092416;28;20217;-78
2023/06/12 04:43:41;;;;;;;4.18;3.78;;;;;26.40;101490.00;;;;5091497;28;20222;-79
2023/06/12 04:46:08;;;;;;;4.13;3.38;;;;;26.50;101498.00;;;;5092229;28;20225;-79
2023/06/12 04:48:36;;;;;;;3.60;3.30;;;;;26.50;101499.00;;;;5087714;28;20210;-79
2023/06/12 04:51:04;;;;;;;4.60;3.38;;;;;26.50;101494.00;;;;5070522;28;20253;-78
2023/06/12 04:53:31;;;;;;;5.88;3.17;;;;;26.50;101494.00;;;;5071177;28;20290;-79
2023/06/12 04:56:00;;;;;;;3.95;3.20;;;;;26.50;101499.00;;;;5073119;28;20210;-78
2023/06/12 04:58:29;;;;;;;4.13;3.60;;;;;26.50;101497.00;;;;5090563;28;20256;-79
2023/06/12 05:01:00;;;;;;;4.45;3.47;;;;;26.60;101500.00;;;;5090325;28;20211;-79
2023/06/12 05:03:28;;;;;;;3.35;3.00;;;;;26.60;101496.00;;;;5090882;28;20214;-79
2023/06/12 05:05:56;;;;;;;4.60;3.00;;;;;26.70;101503.00;;;;5089326;28;20195;-79
2023/06/12 05:08:24;;;;;;;4.05;3.13;;;;;26.70;101503.00;;;;5069791;28;20198;-79
2023/06/12 05:10:51;;;;;;;4.57;3.13;;;;;26.70;101495.00;;;;5074181;28;20194;-79
2023/06/12 05:13:19;;;;;;;4.60;3.03;;;;;26.80;101502.00;;;;5090539;28;20679;-79
2023/06/12 05:15:48;;;;;;;5.07;3.55;;;;;26.80;101505.00;;;;5091018;28;20263;-78
2023/06/12 05:18:15;;;;;;;6.60;3.67;;;;;26.90;101506.00;;;;5090731;28;20656;-79
2023/06/12 05:20:42;;;;;;;3.70;2.95;;;;;26.90;101504.00;;;;5090933;28;20217;-79
2023/06/12 05:23:10;;;;;;;4.97;3.28;;;;;27.00;101505.00;;;;5090086;28;20210;-79
2023/06/12 05:25:37;;;;;;;4.40;3.08;;;;;27.10;101504.00;;;;5090598;28;20589;-79
2023/06/12 05:28:04;;;;;;;4.63;3.22;;;;;27.10;101507.00;;;;5089855;28;20187;-79
2023/06/12 05:30:31;;;;;;;4.40;3.20;;;;;27.20;101502.00;;;;5090423;28;20563;-79
2023/06/12 05:33:00;;;;;;;3.97;2.80;;;;;27.20;101510.00;;;;5090366;28;20209;-78
2023/06/12 05:35:28;;;;;;;3.90;3.20;;;;;27.30;101502.00;;;;5090416;28;20226;-79
2023/06/12 05:37:55;;;;;;;5.15;3.33;;;;;27.30;101509.00;;;;5089899;28;20205;-78
2023/06/12 05:40:22;;;;;;;4.72;3.45;;;;;27.40;101502.00;;;;5088918;28;20214;-79
2023/06/12 05:42:50;;;;;;;4.35;3.33;;;;;27.40;101507.00;;;;5090068;28;20199;-79
2023/06/12 05:45:17;;;;;;;3.65;3.33;;;;;27.50;101506.00;;;;5090337;28;20399;-79
2023/06/12 05:47:44;;;;;;;4.05;3.50;;;;;27.60;101497.00;;;;5090093;28;20561;-79
2023/06/12 05:50:13;;;;;;;5.43;3.63;;;;;27.60;101503.00;;;;5089746;28;20652;-79
2023/06/12 05:52:40;;;;;;;3.92;3.10;;;;;27.70;101506.00;;;;5089593;28;20198;-79
2023/06/12 05:55:08;;;;;;;4.28;3.33;;;;;27.80;101505.00;;;;5089498;28;20206;-79
2023/06/12 05:57:36;;;;;;;4.10;3.28;;;;;27.80;101507.00;;;;5082480;28;20623;-79
2023/06/12 06:00:05;;;;;;;4.82;3.70;;;;;27.90;101513.00;;;;5069861;28;20207;-79
2023/06/12 06:02:33;;;;;;;6.13;3.00;;;;;28.00;101513.00;;;;5069297;28;20206;-79
2023/06/12 06:05:00;;;;;;;4.28;3.05;;;;;28.00;101514.00;;;;5068189;28;20807;-79
2023/06/12 06:07:30;;;;;;;4.00;2.92;;;;;28.10;101514.00;;;;5069330;28;20202;-79
2023/06/12 06:09:57;;;;;;;3.35;3.05;;;;;28.20;101520.00;;;;5069328;28;20630;-79
2023/06/12 06:12:24;;;;;;;7.10;3.72;;;;;28.20;101509.00;;;;5068990;28;20195;-78
2023/06/12 06:14:52;;;;;;;4.15;3.30;;;;;28.30;101512.00;;;;5075221;28;20195;-78
2023/06/12 06:17:20;;;;;;;4.22;3.03;;;;;28.40;101512.00;;;;5069415;28;20198;-79
2023/06/12 06:19:47;;;;;;;5.88;3.13;;;;;28.50;101513.00;;;;5069826;28;20236;-79
2023/06/12 06:22:17;;;;;;;3.83;3.25;;;;;28.50;101510.00;;;;5069655;28;20203;-79
2023/06/12 06:24:46;;;;;;;4.15;3.65;;;;;28.60;101510.00;;;;5069761;28;20223;-79
2023/06/12 06:27:13;;;;;;;4.78;3.47;;;;;28.70;101516.00;;;;5068830;28;20576;-79
2023/06/12 06:29:41;;;;;;;4.53;3.38;;;;;28.80;101517.00;;;;5068846;28;20207;-79
2023/06/12 06:32:08;;;;;;;5.43;3.70;;;;;28.90;101521.00;;;;5069202;28;20238;-79
2023/06/12 06:34:36;;;;;;;6.13;3.63;;;;;29.00;101523.00;;;;5069342;28;20199;-79
2023/06/12 06:37:03;;;;;;;4.22;3.53;;;;;29.10;101531.00;;;;5069221;28;20199;-79
2023/06/12 06:39:30;;;;;;;4.03;3.63;;;;;29.20;101523.00;;;;5069230;28;20205;-80
2023/06/12 06:41:59;;;;;;;5.00;3.55;;;;;29.20;101527.00;;;;5073920;28;20192;-79
2023/06/12 06:44:26;;;;;;;3.80;3.50;;;;;29.30;101525.00;;;;5089348;28;20590;-79
2023/06/12 06:46:53;;;;;;;4.07;3.67;;;;;29.40;101531.00;;;;5089445;28;20668;-79
2023/06/12 06:49:22;;;;;;;4.18;3.75;;;;;29.50;101533.00;;;;5087983;28;20218;-78
2023/06/12 06:51:49;;;;;;;3.60;3.30;;;;;29.60;101531.00;;;;5089655;28;20210;-79
2023/06/12 06:54:16;;;;;;;4.45;3.45;;;;;29.70;101529.00;;;;5089292;28;20194;-80
2023/06/12 06:56:44;;;;;;;3.97;3.58;;;;;29.80;101521.00;;;;5088378;28;20198;-79
2023/06/12 06:59:13;;;;;;;4.00;3.33;;;;;29.90;101532.00;;;;5089013;28;20668;-80
2023/06/12 07:01:40;;;;;;;3.53;3.20;;;;;30.00;101520.00;;;;5088501;28;20695;-79
2023/06/12 07:04:07;;;;;;;3.85;3.33;;;;;30.10;101528.00;;;;5087522;28;20309;-80
2023/06/12 07:06:35;;;;;;;4.93;3.75;;;;;30.10;101519.00;;;;5087607;28;20594;-80
2023/06/12 07:09:03;;;;;;;3.83;3.30;;;;;30.20;101519.00;;;;5089102;28;20243;-79
2023/06/12 07:11:30;;;;;;;4.65;3.35;;;;;30.30;101527.00;;;;5087883;28;20205;-79
2023/06/12 07:13:58;;;;;;;4.18;3.78;;;;;30.40;101520.00;;;;5089261;28;20202;-79
2023/06/12 07:16:27;;;;;;;4.95;3.13;;;;;30.50;101525.00;;;;5088431;28;20603;-80
2023/06/12 07:18:54;;;;;;;5.57;3.38;;;;;30.60;101516.00;;;;5088825;28;20198;-79
2023/06/12 07:21:21;;;;;;;6.75;3.80;;;;;30.70;101519.00;;;;5088508;28;20202;-79
2023/06/12 07:23:51;;;;;;;3.83;3.30;;;;;30.80;101524.00;;;;5072066;28;20218;-79
2023/06/12 07:26:19;;;;;;;4.45;3.78;;;;;30.90;101521.00;;;;5067975;28;20230;-80
2023/06/12 07:28:46;;;;;;;7.55;3.53;;;;;31.00;101529.00;;;;5068470;28;20195;-80
2023/06/12 07:31:14;;;;;;;4.03;3.60;;;;;31.00;101524.00;;;;5068284;28;20218;-79
2023/06/12 07:33:42;;;;;;;4.30;3.35;;;;;31.10;101527.00;;;;5068719;28;20214;-79
2023/06/12 07:36:10;;;;;;;4.82;4.05;;;;;31.20;101515.00;;;;5068081;28;20198;-80
2023/06/12 07:38:37;;;;;;;3.88;3.45;;;;;31.30;101525.00;;;;5067698;28;20230;-79
2023/06/12 07:41:04;;;;;;;5.35;4.10;;;;;31.40;101519.00;;;;5068850;28;20206;-80
2023/06/12 07:43:34;;;;;;;5.30;3.92;;;;;31.50;101519.00;;;;5085843;28;20206;-79
2023/06/12 07:46:01;;;;;;;4.13;3.72;;;;;31.60;101522.00;;;;5088394;28;20628;-79
2023/06/12 07:48:29;;;;;;;3.75;3.40;;;;;31.70;101519.00;;;;5088238;28;20244;-79
2023/06/12 07:50:57;;;;;;;4.43;3.85;;;;;31.70;101515.00;;;;5089055;28;20201;-79
2023/06/12 07:53:25;;;;;;;5.50;4.13;;;;;31.90;101512.00;;;;5088530;28;20747;-79
2023/06/12 07:55:52;;;;;;;3.90;3.47;;;;;31.90;101518.00;;;;5088245;28;20206;-79
2023/06/12 07:58:19;;;;;;;3.63;3.30;;;;;32.10;101524.00;;;;5087782;28;20212;-81
2023/06/12 08:00:46;;;;;;;5.05;3.70;;;;;32.10;101520.00;;;;5087998;28;20206;-80
2023/06/12 08:03:15;;;;;;;6.55;4.03;;;;;32.30;101514.00;;;;5087816;28;20222;-80
2023/06/12 08:05:42;;;;;;;4.53;3.95;;;;;32.40;101511.00;;;;5087454;28;20221;-79
2023/06/12 08:08:13;;;;;;;5.70;3.78;;;;;32.40;101510.00;;;;5087906;28;20205;-79
2023/06/12 08:10:40;;;;;;;4.32;3.70;;;;;32.60;101512.00;;;;5087330;28;20206;-80
2023/06/12 08:13:07;;;;;;;4.60;3.78;;;;;32.70;101511.00;;;;5084136;28;20210;-79
2023/06/12 08:15:35;;;;;;;3.88;3.42;;;;;32.80;101512.00;;;;5071929;28;20271;-79
2023/06/12 08:18:02;;;;;;;4.88;3.72;;;;;32.90;101517.00;;;;5087748;28;20194;-79
2023/06/12 08:20:31;;;;;;;3.90;3.50;;;;;33.00;101514.00;;;;5087731;28;20205;-79
2023/06/12 08:22:59;;;;;;;4.13;3.72;;;;;33.10;101515.00;;;;5087926;28;20766;-80
2023/06/12 08:25:28;;;;;;;3.97;3.47;;;;;33.20;101513.00;;;;5087415;28;20340;-79
2023/06/12 08:27:56;;;;;;;3.85;3.55;;;;;33.30;101515.00;;;;5087480;28;20202;-80
2023/06/12 08:30:23;;;;;;;3.70;3.22;;;;;33.40;101515.00;;;;5086206;28;20293;-79
2023/06/12 08:32:50;;;;;;;3.80;3.45;;;;;33.50;101518.00;;;;5087455;28;20201;-79
2023/06/12 08:35:18;;;;;;;3.83;3.53;;;;;33.60;101518.00;;;;5087489;28;20215;-79
2023/06/12 08:37:45;;;;;;;5.05;3.60;;;;;33.70;101518.00;;;;5087247;28;20197;-79
2023/06/12 08:40:12;;;;;;;3.72;3.42;;;;;33.80;101514.00;;;;5087164;28;20190;-80
2023/06/12 08:42:48;;;;;;;4.82;4.25;;;;;33.80;101514.00;;;;5087318;28;20204;-78
2023/06/12 08:45:19;;;;;;;4.65;3.67;;;;;33.90;101506.00;;;;5086582;28;20235;-80
2023/06/12 08:47:49;;;;;;;3.97;3.58;;;;;34.00;101508.00;;;;5087055;28;20209;-82
2023/06/12 08:50:18;;;;;;;4.57;3.63;;;;;34.10;101511.00;;;;5087363;28;20555;-81
2023/06/12 08:52:46;;;;;;;4.30;3.55;;;;;34.20;101508.00;;;;5090505;28;20763;-81
2023/06/12 08:55:15;;;;;;;4.70;3.60;;;;;34.30;101512.00;;;;5090540;28;20201;-81
2023/06/12 08:57:44;;;;;;;4.88;3.67;;;;;34.40;101508.00;;;;5090344;28;20205;-80
2023/06/12 09:00:13;;;;;;;4.72;3.92;;;;;34.50;101511.00;;;;5090858;28;20255;-81
2023/06/12 09:02:45;;;;;;;4.28;3.75;;;;;34.50;101506.00;;;;5091257;28;20214;-79
2023/06/12 09:05:17;;;;;;;3.60;3.25;;;;;34.60;101497.00;;;;5078366;28;20233;-79
2023/06/12 09:07:47;;;;;;;4.53;3.50;;;;;34.80;101499.00;;;;5071172;28;20615;-80
2023/06/12 09:10:15;;;;;;;4.32;3.92;;;;;34.80;101500.00;;;;5069996;28;20194;-80
2023/06/12 09:12:45;;;;;;;3.88;3.58;;;;;34.90;101493.00;;;;5070320;28;20202;-78
2023/06/12 09:15:17;;;;;;;3.65;3.28;;;;;35.00;101498.00;;;;5071644;28;20205;-80
2023/06/12 09:17:47;;;;;;;4.13;3.67;;;;;35.10;101492.00;;;;5090625;28;20194;-79
2023/06/12 09:20:17;;;;;;;4.05;3.42;;;;;35.20;101496.00;;;;5091086;28;20197;-79
2023/06/12 09:22:44;;;;;;;4.53;3.40;;;;;35.30;101499.00;;;;5074775;28;20213;-80
2023/06/12 09:25:12;;;;;;;3.25;2.95;;;;;35.40;101493.00;;;;5069803;28;20708;-80
2023/06/12 09:27:45;;;;;;;3.60;3.30;;;;;35.40;101492.00;;;;5070109;28;20210;-79
2023/06/12 09:30:14;;;;;;;4.32;3.92;;;;;35.50;101486.00;;;;5069798;28;20198;-79
2023/06/12 09:32:43;;;;;;;3.88;3.33;;;;;35.60;101483.00;;;;5069539;28;20950;-79
2023/06/12 09:35:11;;;;;;;4.40;3.45;;;;;35.70;101499.00;;;;5069932;28;20198;-80
2023/06/12 09:37:40;;;;;;;3.85;3.42;;;;;35.80;101483.00;;;;5070157;28;20209;-80
2023/06/12 09:40:11;;;;;;;4.25;3.60;;;;;35.80;101488.00;;;;5070674;28;20209;-80
2023/06/12 09:42:39;;;;;;;5.10;3.63;;;;;35.90;101491.00;;;;5069310;28;20533;-80
2023/06/12 09:45:19;;;;;;;4.15;3.30;;;;;35.90;101498.00;;;;5072949;28;20222;-80
2023/06/12 09:47:47;;;;;;;3.50;3.17;;;;;36.00;101490.00;;;;5090516;28;20186;-80
2023/06/12 09:50:16;;;;;;;4.07;3.33;;;;;36.10;101488.00;;;;5091067;28;20216;-80
2023/06/12 09:52:45;;;;;;;4.88;3.28;;;;;36.10;101481.00;;;;5089645;28;20208;-81
2023/06/12 09:55:15;;;;;;;4.03;2.92;;;;;36.10;101482.00;;;;5089870;28;20201;-80
2023/06/12 09:57:45;;;;;;;3.78;3.10;;;;;36.20;101482.00;;;;5089810;28;20197;-81
2023/06/12 10:00:16;;;;;;;4.50;2.95;;;;;36.20;101484.00;;;;5090587;28;20217;-81
2023/06/12 10:02:57;;;;;;;3.20;2.85;;;;;36.20;101493.00;;;;5089380;28;20683;-81
2023/06/12 10:05:28;;;;;;;3.15;2.90;;;;;36.20;101487.00;;;;5090073;28;20217;-81
2023/06/12 10:08:00;;;;;;;4.45;3.10;;;;;36.30;101494.00;;;;5090390;28;20205;-80
2023/06/12 10:10:28;;;;;;;3.70;2.90;;;;;36.30;101494.00;;;;5089811;28;21112;-81
2023/06/12 10:12:56;;;;;;;4.63;3.75;;;;;36.30;101491.00;;;;5080326;28;20207;-80
2023/06/12 10:15:25;;;;;;;3.30;3.00;;;;;36.40;101487.00;;;;5072220;28;20201;-80
2023/06/12 10:17:53;;;;;;;3.75;3.20;;;;;36.40;101487.00;;;;5089537;28;20225;-80
2023/06/12 10:20:21;;;;;;;3.65;3.30;;;;;36.50;101492.00;;;;5089953;28;20208;-80
2023/06/12 10:22:49;;;;;;;4.57;3.70;;;;;36.50;101486.00;;;;5089468;28;20206;-81
2023/06/12 10:25:17;;;;;;;4.68;3.33;;;;;36.60;101481.00;;;;5089870;28;20575;-81
2023/06/12 10:27:45;;;;;;;3.88;3.58;;;;;36.60;101493.00;;;;5089601;28;20202;-83
2023/06/12 10:30:16;;;;;;;3.22;2.95;;;;;36.60;101494.00;;;;5088844;28;20205;-81
2023/06/12 10:32:46;;;;;;;4.75;3.45;;;;;36.60;101488.00;;;;5089521;28;20225;-80
2023/06/12 10:35:28;;;;;;;3.80;3.15;;;;;36.70;101489.00;;;;5089397;28;20194;-83
2023/06/12 10:37:55;;;;;;;3.63;3.13;;;;;36.70;101491.00;;;;5089366;28;20678;-81
2023/06/12 10:40:23;;;;;;;3.60;3.30;;;;;36.70;101479.00;;;;5089204;28;20252;-82
2023/06/12 10:43:00;;;;;;;4.22;3.78;;;;;36.60;101482.00;;;;5089691;28;20202;-80
2023/06/12 10:45:29;;;;;;;3.33;3.03;;;;;36.60;101473.00;;;;5089536;28;20218;-80
2023/06/12 10:48:17;;;;;;;3.47;3.17;;;;;36.50;101471.00;;;;5070658;28;20668;-81
2023/06/12 10:50:48;;;;;;;3.90;3.00;;;;;36.60;101463.00;;;;5069554;28;20281;-82
2023/06/12 10:53:16;;;;;;;3.75;3.45;;;;;36.60;101455.00;;;;5069618;28;20206;-81
2023/06/12 10:55:44;;;;;;;5.18;3.30;;;;;36.60;101457.00;;;;5069859;28;20198;-81
2023/06/12 10:58:14;;;;;;;4.35;3.88;;;;;36.60;101458.00;;;;5083643;28;20637;-80
2023/06/12 11:00:46;;;;;;;3.47;3.17;;;;;36.50;101462.00;;;;5088644;28;20212;-80
2023/06/12 11:03:18;;;;;;;3.35;3.05;;;;;36.50;101464.00;;;;5085820;28;20218;-81
2023/06/12 11:05:50;;;;;;;4.03;3.45;;;;;36.50;101466.00;;;;5068240;28;20222;-82
2023/06/12 11:08:17;;;;;;;4.38;3.95;;;;;36.50;101462.00;;;;5067731;28;20305;-80
2023/06/12 11:10:45;;;;;;;5.10;3.25;;;;;36.50;101468.00;;;;5068509;28;20206;-81
2023/06/12 11:13:12;;;;;;;3.40;2.70;;;;;36.40;101458.00;;;;5067853;28;20208;-80
2023/06/12 11:15:44;;;;;;;3.30;3.00;;;;;36.40;101449.00;;;;5073142;28;20206;-80
2023/06/12 11:18:11;;;;;;;4.55;3.40;;;;;36.40;101461.00;;;;5087802;28;20679;-81
2023/06/12 11:20:41;;;;;;;3.72;3.33;;;;;36.40;101449.00;;;;5086901;28;20241;-80
2023/06/12 11:23:08;;;;;;;5.78;3.47;;;;;36.30;101453.00;;;;5088771;28;20202;-81
2023/06/12 11:25:42;;;;;;;3.65;3.33;;;;;36.30;101451.00;;;;5087973;28;20202;-80
2023/06/12 11:28:11;;;;;;;3.70;3.22;;;;;36.40;101446.00;;;;5088577;28;20562;-80
2023/06/12 11:30:39;;;;;;;3.92;2.92;;;;;36.40;101445.00;;;;5087857;28;20201;-80
2023/06/12 11:33:09;;;;;;;4.20;2.58;;;;;36.40;101442.00;;;;5087640;28;20620;-81
2023/06/12 11:35:42;;;;;;;3.30;3.00;;;;;36.30;101443.00;;;;5087747;28;20277;-80
2023/06/12 11:38:10;;;;;;;4.05;2.92;;;;;36.40;101436.00;;;;5087459;28;20202;-81
2023/06/12 11:40:37;;;;;;;4.30;3.30;;;;;36.40;101435.00;;;;5087860;28;20213;-82
2023/06/12 11:43:05;;;;;;;6.72;3.30;;;;;36.40;101438.00;;;;5087026;28;20197;-83
2023/06/12 11:45:33;;;;;;;4.80;3.22;;;;;36.40;101434.00;;;;5088166;28;20202;-81
2023/06/12 11:48:01;;;;;;;3.42;3.13;;;;;36.40;101429.00;;;;5087806;28;20218;-80
2023/06/12 11:50:29;;;;;;;7.15;3.10;;;;;36.40;101420.00;;;;5088095;28;20202;-82
2023/06/12 11:52:57;;;;;;;3.70;3.25;;;;;36.40;101426.00;;;;5087837;28;20213;-81
2023/06/12 11:55:26;;;;;;;5.32;3.03;;;;;36.40;101428.00;;;;5086654;28;20213;-81
2023/06/12 11:57:53;;;;;;;3.63;3.33;;;;;36.40;101412.00;;;;5087807;28;20206;-81
2023/06/12 12:00:22;;;;;;;3.25;2.92;;;;;36.40;101417.00;;;;5087157;28;20341;-80
2023/06/12 12:02:51;;;;;;;4.25;3.78;;;;;36.40;101419.00;;;;5088231;28;20679;-80
2023/06/12 12:05:20;;;;;;;3.53;3.22;;;;;36.40;101422.00;;;;5087488;28;20202;-80
2023/06/12 12:07:55;;;;;;;3.58;2.95;;;;;36.40;101413.00;;;;5087836;28;20225;-79
2023/06/12 12:10:27;;;;;;;3.55;3.03;;;;;36.40;101416.00;;;;5087754;28;20236;-80
2023/06/12 12:12:59;;;;;;;4.30;2.95;;;;;36.40;101412.00;;;;5070039;28;20207;-80
2023/06/12 12:15:27;;;;;;;3.45;3.15;;;;;36.50;101405.00;;;;5066818;28;20244;-80